sensor_id;sensor_type;location;lat;lon;timestamp;pressure;altitude;pressure_sealevel;temperature;humidity
16190;BME280;41754;51.498;7.540;2023-05-10T00:01:19;99537.91;;;15.57;76.52
16190;BME280;41754;51.498;7.540;2023-05-10T00:03:47;99535.34;;;15.13;77.64
16190;BME280;41754;51.498;7.540;2023-05-10T00:06:16;99533.09;;;15.89;76.27
16190;BME280;41754;51.498;7.540;2023-05-10T00:08:45;99537.53;;;15.74;75.97
16190;BME280;41754;51.498;7.540;2023-05-10T00:11:13;99536.72;;;15.38;77.07
16190;BME280;41754;51.498;7.540;2023-05-10T00:13:41;99541.84;;;15.56;77.50
16190;BME280;41754;51.498;7.540;2023-05-10T00:16:09;99533.66;;;15.78;76.78
16190;BME280;41754;51.498;7.540;2023-05-10T00:18:38;99536.00;;;15.76;75.61
16190;BME280;41754;51.498;7.540;2023-05-10T00:21:06;99532.94;;;15.11;77.68
16190;BME280;41754;51.498;7.540;2023-05-10T00:23:34;99527.56;;;15.54;77.19
16190;BME280;41754;51.498;7.540;2023-05-10T00:26:03;99535.88;;;15.89;77.25
16190;BME280;41754;51.498;7.540;2023-05-10T00:28:31;99531.91;;;15.70;77.20
16190;BME280;41754;51.498;7.540;2023-05-10T00:30:59;99532.22;;;15.49;76.65
16190;BME280;41754;51.498;7.540;2023-05-10T00:33:29;99538.72;;;15.22;78.87
16190;BME280;41754;51.498;7.540;2023-05-10T00:35:57;99543.31;;;14.99;79.10
16190;BME280;41754;51.498;7.540;2023-05-10T00:38:25;99529.50;;;15.69;76.43
16190;BME280;41754;51.498;7.540;2023-05-10T00:40:52;99530.59;;;16.03;75.30
16190;BME280;41754;51.498;7.540;2023-05-10T00:43:28;99537.69;;;15.81;75.88
16190;BME280;41754;51.498;7.540;2023-05-10T00:45:56;99529.06;;;15.67;75.46
16190;BME280;41754;51.498;7.540;2023-05-10T00:48:25;99532.13;;;15.81;75.46
16190;BME280;41754;51.498;7.540;2023-05-10T00:50:53;99539.84;;;15.72;76.48
16190;BME280;41754;51.498;7.540;2023-05-10T00:53:21;99537.88;;;15.72;75.49
16190;BME280;41754;51.498;7.540;2023-05-10T00:55:49;99538.41;;;15.43;76.70
16190;BME280;41754;51.498;7.540;2023-05-10T00:58:18;99536.50;;;15.82;75.48
16190;BME280;41754;51.498;7.540;2023-05-10T01:00:47;99534.31;;;15.72;75.73
16190;BME280;41754;51.498;7.540;2023-05-10T01:03:16;99534.69;;;15.90;74.06
16190;BME280;41754;51.498;7.540;2023-05-10T01:05:45;99532.41;;;15.95;74.38
16190;BME280;41754;51.498;7.540;2023-05-10T01:08:13;99543.16;;;15.42;76.00
16190;BME280;41754;51.498;7.540;2023-05-10T01:10:41;99540.66;;;15.37;75.87
16190;BME280;41754;51.498;7.540;2023-05-10T01:13:11;99537.75;;;15.65;76.49
16190;BME280;41754;51.498;7.540;2023-05-10T01:15:39;99539.84;;;15.72;75.30
16190;BME280;41754;51.498;7.540;2023-05-10T01:18:09;99536.31;;;15.56;76.07
16190;BME280;41754;51.498;7.540;2023-05-10T01:20:43;99537.84;;;15.88;74.46
16190;BME280;41754;51.498;7.540;2023-05-10T01:23:35;99539.75;;;15.33;76.18
16190;BME280;41754;51.498;7.540;2023-05-10T01:26:21;99539.22;;;15.43;76.24
16190;BME280;41754;51.498;7.540;2023-05-10T01:29:11;99542.34;;;15.77;75.47
16190;BME280;41754;51.498;7.540;2023-05-10T01:32:16;99531.03;;;15.66;75.39
16190;BME280;41754;51.498;7.540;2023-05-10T01:34:55;99538.56;;;15.85;74.22
16190;BME280;41754;51.498;7.540;2023-05-10T01:37:40;99538.25;;;16.10;73.19
16190;BME280;41754;51.498;7.540;2023-05-10T01:40:14;99545.13;;;16.16;72.98
16190;BME280;41754;51.498;7.540;2023-05-10T01:42:49;99548.63;;;15.74;74.51
16190;BME280;41754;51.498;7.540;2023-05-10T01:45:24;99548.84;;;15.65;75.14
16190;BME280;41754;51.498;7.540;2023-05-10T01:48:00;99545.88;;;15.58;75.48
16190;BME280;41754;51.498;7.540;2023-05-10T01:50:30;99546.13;;;16.07;74.41
16190;BME280;41754;51.498;7.540;2023-05-10T01:53:01;99560.31;;;15.83;75.02
16190;BME280;41754;51.498;7.540;2023-05-10T01:55:32;99555.00;;;16.13;74.27
16190;BME280;41754;51.498;7.540;2023-05-10T01:58:04;99556.50;;;15.72;75.74
16190;BME280;41754;51.498;7.540;2023-05-10T02:00:34;99552.72;;;16.19;73.95
16190;BME280;41754;51.498;7.540;2023-05-10T02:03:08;99550.06;;;15.68;75.35
16190;BME280;41754;51.498;7.540;2023-05-10T02:05:38;99561.44;;;14.80;78.97
16190;BME280;41754;51.498;7.540;2023-05-10T02:08:08;99566.06;;;15.39;77.62
16190;BME280;41754;51.498;7.540;2023-05-10T02:10:37;99559.84;;;15.62;77.07
16190;BME280;41754;51.498;7.540;2023-05-10T02:13:08;99555.22;;;15.85;74.64
16190;BME280;41754;51.498;7.540;2023-05-10T02:15:38;99565.06;;;16.02;74.37
16190;BME280;41754;51.498;7.540;2023-05-10T02:18:09;99559.00;;;15.96;74.81
16190;BME280;41754;51.498;7.540;2023-05-10T02:20:39;99559.72;;;15.58;75.05
16190;BME280;41754;51.498;7.540;2023-05-10T02:23:08;99564.59;;;15.81;74.58
16190;BME280;41754;51.498;7.540;2023-05-10T02:25:37;99565.97;;;15.71;75.06
16190;BME280;41754;51.498;7.540;2023-05-10T02:28:07;99571.19;;;15.57;74.41
16190;BME280;41754;51.498;7.540;2023-05-10T02:30:36;99574.09;;;15.44;75.85
16190;BME280;41754;51.498;7.540;2023-05-10T02:33:05;99574.63;;;15.50;75.10
16190;BME280;41754;51.498;7.540;2023-05-10T02:35:35;99576.97;;;15.32;75.18
16190;BME280;41754;51.498;7.540;2023-05-10T02:38:06;99571.25;;;15.76;74.18
16190;BME280;41754;51.498;7.540;2023-05-10T02:40:35;99572.63;;;15.66;73.59
16190;BME280;41754;51.498;7.540;2023-05-10T02:43:05;99574.16;;;15.83;73.29
16190;BME280;41754;51.498;7.540;2023-05-10T02:45:35;99569.94;;;15.70;72.76
16190;BME280;41754;51.498;7.540;2023-05-10T02:48:05;99570.09;;;15.96;72.70
16190;BME280;41754;51.498;7.540;2023-05-10T02:50:36;99574.09;;;15.80;72.75
16190;BME280;41754;51.498;7.540;2023-05-10T02:53:09;99570.03;;;15.73;72.96
16190;BME280;41754;51.498;7.540;2023-05-10T02:55:40;99583.53;;;15.94;72.63
16190;BME280;41754;51.498;7.540;2023-05-10T02:58:08;99577.16;;;15.59;72.40
16190;BME280;41754;51.498;7.540;2023-05-10T03:00:36;99580.63;;;15.87;73.01
16190;BME280;41754;51.498;7.540;2023-05-10T03:03:04;99583.50;;;15.40;72.98
16190;BME280;41754;51.498;7.540;2023-05-10T03:05:34;99586.63;;;15.38;73.31
16190;BME280;41754;51.498;7.540;2023-05-10T03:08:03;99584.66;;;15.39;72.91
16190;BME280;41754;51.498;7.540;2023-05-10T03:10:40;99584.72;;;15.42;72.56
16190;BME280;41754;51.498;7.540;2023-05-10T03:13:15;99590.56;;;15.37;72.79
16190;BME280;41754;51.498;7.540;2023-05-10T03:15:51;99597.06;;;15.45;70.92
16190;BME280;41754;51.498;7.540;2023-05-10T03:18:28;99592.19;;;15.58;71.69
16190;BME280;41754;51.498;7.540;2023-05-10T03:21:02;99588.38;;;15.46;71.84
16190;BME280;41754;51.498;7.540;2023-05-10T03:23:35;99596.22;;;15.76;71.58
16190;BME280;41754;51.498;7.540;2023-05-10T03:26:04;99595.50;;;15.79;70.95
16190;BME280;41754;51.498;7.540;2023-05-10T03:28:34;99596.78;;;15.66;70.73
16190;BME280;41754;51.498;7.540;2023-05-10T03:31:04;99600.31;;;15.82;69.95
16190;BME280;41754;51.498;7.540;2023-05-10T03:33:33;99596.59;;;15.59;70.57
16190;BME280;41754;51.498;7.540;2023-05-10T03:36:03;99603.03;;;15.63;70.30
16190;BME280;41754;51.498;7.540;2023-05-10T03:38:32;99614.63;;;15.84;70.40
16190;BME280;41754;51.498;7.540;2023-05-10T03:41:00;99596.16;;;15.57;69.44
16190;BME280;41754;51.498;7.540;2023-05-10T03:43:28;99604.69;;;15.32;70.44
16190;BME280;41754;51.498;7.540;2023-05-10T03:45:56;99605.75;;;15.43;70.61
16190;BME280;41754;51.498;7.540;2023-05-10T03:48:24;99606.97;;;15.62;69.86
16190;BME280;41754;51.498;7.540;2023-05-10T03:50:52;99617.09;;;15.54;70.52
16190;BME280;41754;51.498;7.540;2023-05-10T03:53:22;99619.47;;;15.87;69.90
16190;BME280;41754;51.498;7.540;2023-05-10T03:55:50;99605.75;;;15.43;69.82
16190;BME280;41754;51.498;7.540;2023-05-10T03:58:18;99616.28;;;15.54;71.44
16190;BME280;41754;51.498;7.540;2023-05-10T04:00:46;99614.81;;;15.60;69.88
16190;BME280;41754;51.498;7.540;2023-05-10T04:03:14;99619.56;;;15.24;72.10
16190;BME280;41754;51.498;7.540;2023-05-10T04:05:43;99618.75;;;15.59;70.91
16190;BME280;41754;51.498;7.540;2023-05-10T04:08:11;99620.03;;;15.45;71.25
16190;BME280;41754;51.498;7.540;2023-05-10T04:10:40;99623.03;;;15.37;71.98
16190;BME280;41754;51.498;7.540;2023-05-10T04:13:08;99631.91;;;15.11;73.02
16190;BME280;41754;51.498;7.540;2023-05-10T04:15:36;99624.47;;;15.15;74.29
16190;BME280;41754;51.498;7.540;2023-05-10T04:18:04;99628.56;;;15.21;73.92
16190;BME280;41754;51.498;7.540;2023-05-10T04:20:34;99625.22;;;15.63;72.33
16190;BME280;41754;51.498;7.540;2023-05-10T04:23:02;99623.44;;;15.55;71.99
16190;BME280;41754;51.498;7.540;2023-05-10T04:25:30;99623.00;;;15.53;71.95
16190;BME280;41754;51.498;7.540;2023-05-10T04:28:03;99621.75;;;15.34;72.77
16190;BME280;41754;51.498;7.540;2023-05-10T04:30:31;99622.22;;;15.36;72.23
16190;BME280;41754;51.498;7.540;2023-05-10T04:32:59;99619.50;;;15.56;71.53
16190;BME280;41754;51.498;7.540;2023-05-10T04:35:28;99618.63;;;15.52;71.62
16190;BME280;41754;51.498;7.540;2023-05-10T04:37:56;99636.34;;;15.00;73.39
16190;BME280;41754;51.498;7.540;2023-05-10T04:40:24;99633.41;;;15.24;73.48
16190;BME280;41754;51.498;7.540;2023-05-10T04:42:52;99631.91;;;15.11;73.81
16190;BME280;41754;51.498;7.540;2023-05-10T04:45:22;99634.38;;;15.16;73.64
16190;BME280;41754;51.498;7.540;2023-05-10T04:47:50;99631.38;;;15.72;71.95
16190;BME280;41754;51.498;7.540;2023-05-10T04:50:18;99630.25;;;15.41;71.74
16190;BME280;41754;51.498;7.540;2023-05-10T04:52:46;99642.97;;;15.11;72.52
16190;BME280;41754;51.498;7.540;2023-05-10T04:55:14;99641.06;;;15.46;73.13
16190;BME280;41754;51.498;7.540;2023-05-10T04:57:42;99642.88;;;15.23;73.61
16190;BME280;41754;51.498;7.540;2023-05-10T05:00:10;99638.38;;;15.34;72.15
16190;BME280;41754;51.498;7.540;2023-05-10T05:02:42;99645.56;;;15.04;73.49
16190;BME280;41754;51.498;7.540;2023-05-10T05:05:10;99646.94;;;14.82;74.92
16190;BME280;41754;51.498;7.540;2023-05-10T05:07:38;99655.41;;;14.73;76.20
16190;BME280;41754;51.498;7.540;2023-05-10T05:10:08;99655.47;;;15.05;74.36
16190;BME280;41754;51.498;7.540;2023-05-10T05:12:36;99660.84;;;15.29;73.66
16190;BME280;41754;51.498;7.540;2023-05-10T05:15:05;99669.97;;;15.14;73.51
16190;BME280;41754;51.498;7.540;2023-05-10T05:17:35;99668.44;;;15.16;74.68
16190;BME280;41754;51.498;7.540;2023-05-10T05:20:06;99673.91;;;15.13;74.16
16190;BME280;41754;51.498;7.540;2023-05-10T05:22:35;99665.03;;;15.55;73.05
16190;BME280;41754;51.498;7.540;2023-05-10T05:25:04;99660.38;;;15.74;71.12
16190;BME280;41754;51.498;7.540;2023-05-10T05:27:32;99661.81;;;15.68;72.02
16190;BME280;41754;51.498;7.540;2023-05-10T05:30:00;99673.03;;;14.81;74.35
16190;BME280;41754;51.498;7.540;2023-05-10T05:32:29;99672.31;;;14.84;74.21
16190;BME280;41754;51.498;7.540;2023-05-10T05:34:57;99668.31;;;14.81;75.20
16190;BME280;41754;51.498;7.540;2023-05-10T05:37:27;99681.56;;;15.04;74.56
16190;BME280;41754;51.498;7.540;2023-05-10T05:40:05;99686.09;;;14.96;74.70
16190;BME280;41754;51.498;7.540;2023-05-10T05:42:33;99674.16;;;15.71;73.06
16190;BME280;41754;51.498;7.540;2023-05-10T05:45:03;99671.72;;;15.85;71.96
16190;BME280;41754;51.498;7.540;2023-05-10T05:47:31;99680.16;;;15.73;72.28
16190;BME280;41754;51.498;7.540;2023-05-10T05:49:59;99683.38;;;15.43;73.27
16190;BME280;41754;51.498;7.540;2023-05-10T05:52:30;99675.94;;;15.16;76.00
16190;BME280;41754;51.498;7.540;2023-05-10T05:54:58;99672.19;;;15.40;73.13
16190;BME280;41754;51.498;7.540;2023-05-10T05:57:26;99669.69;;;15.35;75.25
16190;BME280;41754;51.498;7.540;2023-05-10T05:59:54;99665.72;;;15.83;74.06
16190;BME280;41754;51.498;7.540;2023-05-10T06:02:22;99675.84;;;15.60;73.89
16190;BME280;41754;51.498;7.540;2023-05-10T06:04:50;99682.72;;;15.34;74.82
16190;BME280;41754;51.498;7.540;2023-05-10T06:07:18;99677.66;;;15.36;73.92
16190;BME280;41754;51.498;7.540;2023-05-10T06:09:48;99700.56;;;15.65;73.67
16190;BME280;41754;51.498;7.540;2023-05-10T06:12:16;99706.72;;;15.42;74.09
16190;BME280;41754;51.498;7.540;2023-05-10T06:14:44;99706.00;;;15.61;74.16
16190;BME280;41754;51.498;7.540;2023-05-10T06:17:12;99715.84;;;15.74;74.01
16190;BME280;41754;51.498;7.540;2023-05-10T06:19:39;99720.59;;;15.74;74.11
16190;BME280;41754;51.498;7.540;2023-05-10T06:22:07;99718.50;;;16.22;72.05
16190;BME280;41754;51.498;7.540;2023-05-10T06:24:35;99714.50;;;16.19;72.18
16190;BME280;41754;51.498;7.540;2023-05-10T06:27:05;99708.19;;;16.03;71.87
16190;BME280;41754;51.498;7.540;2023-05-10T06:29:33;99707.03;;;16.78;70.71
16190;BME280;41754;51.498;7.540;2023-05-10T06:32:01;99712.00;;;16.49;70.37
16190;BME280;41754;51.498;7.540;2023-05-10T06:34:29;99714.66;;;16.61;70.58
16190;BME280;41754;51.498;7.540;2023-05-10T06:36:58;99716.22;;;16.08;71.65
16190;BME280;41754;51.498;7.540;2023-05-10T06:39:26;99725.03;;;16.29;72.21
16190;BME280;41754;51.498;7.540;2023-05-10T06:41:54;99724.16;;;16.60;70.95
16190;BME280;41754;51.498;7.540;2023-05-10T06:44:23;99722.97;;;16.81;69.05
16190;BME280;41754;51.498;7.540;2023-05-10T06:46:51;99731.13;;;16.54;69.53
16190;BME280;41754;51.498;7.540;2023-05-10T06:49:20;99721.00;;;16.62;69.39
16190;BME280;41754;51.498;7.540;2023-05-10T06:51:48;99730.44;;;15.87;71.75
16190;BME280;41754;51.498;7.540;2023-05-10T06:54:16;99734.59;;;16.32;71.69
16190;BME280;41754;51.498;7.540;2023-05-10T06:56:44;99728.69;;;16.33;70.67
16190;BME280;41754;51.498;7.540;2023-05-10T06:59:12;99736.63;;;16.16;71.65
16190;BME280;41754;51.498;7.540;2023-05-10T07:01:43;99744.00;;;15.92;71.00
16190;BME280;41754;51.498;7.540;2023-05-10T07:04:11;99739.13;;;16.21;70.50
16190;BME280;41754;51.498;7.540;2023-05-10T07:06:39;99745.94;;;16.07;72.11
16190;BME280;41754;51.498;7.540;2023-05-10T07:09:07;99742.34;;;16.23;69.64
16190;BME280;41754;51.498;7.540;2023-05-10T07:11:35;99739.56;;;16.77;68.02
16190;BME280;41754;51.498;7.540;2023-05-10T07:14:04;99742.84;;;16.83;68.38
16190;BME280;41754;51.498;7.540;2023-05-10T07:16:31;99749.41;;;17.13;68.66
16190;BME280;41754;51.498;7.540;2023-05-10T07:19:01;99758.41;;;16.33;69.63
16190;BME280;41754;51.498;7.540;2023-05-10T07:21:29;99757.09;;;16.81;69.31
16190;BME280;41754;51.498;7.540;2023-05-10T07:23:57;99749.25;;;17.26;66.89
16190;BME280;41754;51.498;7.540;2023-05-10T07:26:26;99753.06;;;16.59;69.17
16190;BME280;41754;51.498;7.540;2023-05-10T07:28:55;99748.56;;;16.90;67.11
16190;BME280;41754;51.498;7.540;2023-05-10T07:31:23;99751.31;;;16.71;68.35
16190;BME280;41754;51.498;7.540;2023-05-10T07:33:51;99744.69;;;17.37;66.82
16190;BME280;41754;51.498;7.540;2023-05-10T07:36:21;99752.03;;;17.06;66.94
16190;BME280;41754;51.498;7.540;2023-05-10T07:38:49;99742.31;;;16.97;64.74
16190;BME280;41754;51.498;7.540;2023-05-10T07:41:17;99745.00;;;18.04;64.43
16190;BME280;41754;51.498;7.540;2023-05-10T07:43:45;99732.63;;;18.54;63.17
16190;BME280;41754;51.498;7.540;2023-05-10T07:46:12;99741.47;;;18.07;62.83
16190;BME280;41754;51.498;7.540;2023-05-10T07:48:40;99734.41;;;18.13;61.64
16190;BME280;41754;51.498;7.540;2023-05-10T07:51:08;99738.16;;;18.24;61.76
16190;BME280;41754;51.498;7.540;2023-05-10T07:53:38;99725.13;;;19.29;59.62
16190;BME280;41754;51.498;7.540;2023-05-10T07:56:21;99731.97;;;18.98;58.63
16190;BME280;41754;51.498;7.540;2023-05-10T07:58:49;99745.16;;;17.88;60.83
16190;BME280;41754;51.498;7.540;2023-05-10T08:01:17;99736.44;;;18.16;61.92
16190;BME280;41754;51.498;7.540;2023-05-10T08:03:45;99736.16;;;18.51;58.68
16190;BME280;41754;51.498;7.540;2023-05-10T08:06:14;99741.47;;;18.07;60.44
16190;BME280;41754;51.498;7.540;2023-05-10T08:08:45;99746.94;;;17.73;62.27
16190;BME280;41754;51.498;7.540;2023-05-10T08:11:16;99751.97;;;17.45;61.27
16190;BME280;41754;51.498;7.540;2023-05-10T08:13:44;99747.53;;;17.86;59.06
16190;BME280;41754;51.498;7.540;2023-05-10T08:16:12;99751.88;;;17.84;60.95
16190;BME280;41754;51.498;7.540;2023-05-10T08:18:40;99762.56;;;17.16;63.08
16190;BME280;41754;51.498;7.540;2023-05-10T08:21:08;99764.28;;;17.44;63.48
16190;BME280;41754;51.498;7.540;2023-05-10T08:23:37;99761.34;;;17.14;63.29
16190;BME280;41754;51.498;7.540;2023-05-10T08:26:07;99755.66;;;18.81;60.77
16190;BME280;41754;51.498;7.540;2023-05-10T08:28:35;99756.25;;;17.85;59.68
16190;BME280;41754;51.498;7.540;2023-05-10T08:31:04;99762.69;;;17.89;61.46
16190;BME280;41754;51.498;7.540;2023-05-10T08:33:32;99760.78;;;18.46;60.51
16190;BME280;41754;51.498;7.540;2023-05-10T08:36:00;99777.16;;;17.98;59.29
16190;BME280;41754;51.498;7.540;2023-05-10T08:38:29;99774.31;;;17.71;60.97
16190;BME280;41754;51.498;7.540;2023-05-10T08:40:57;99772.38;;;19.48;57.57
16190;BME280;41754;51.498;7.540;2023-05-10T08:43:29;99764.78;;;20.48;54.49
16190;BME280;41754;51.498;7.540;2023-05-10T08:46:00;99774.41;;;19.96;54.38
16190;BME280;41754;51.498;7.540;2023-05-10T08:48:29;99765.13;;;18.73;56.50
16190;BME280;41754;51.498;7.540;2023-05-10T08:50:59;99780.84;;;18.32;59.13
16190;BME280;41754;51.498;7.540;2023-05-10T08:53:28;99784.00;;;18.57;58.84
16190;BME280;41754;51.498;7.540;2023-05-10T08:55:58;99788.25;;;17.71;60.73
16190;BME280;41754;51.498;7.540;2023-05-10T08:58:28;99784.78;;;18.27;59.30
16190;BME280;41754;51.498;7.540;2023-05-10T09:00:56;99799.34;;;17.48;59.15
16190;BME280;41754;51.498;7.540;2023-05-10T09:03:24;99798.53;;;17.29;61.32
16190;BME280;41754;51.498;7.540;2023-05-10T09:05:53;99799.84;;;17.54;61.94
16190;BME280;41754;51.498;7.540;2023-05-10T09:08:23;99804.03;;;18.13;60.85
16190;BME280;41754;51.498;7.540;2023-05-10T09:10:52;99795.25;;;19.27;60.15
16190;BME280;41754;51.498;7.540;2023-05-10T09:13:22;99794.28;;;19.13;57.88
16190;BME280;41754;51.498;7.540;2023-05-10T09:15:52;99798.47;;;19.30;57.23
16190;BME280;41754;51.498;7.540;2023-05-10T09:18:20;99797.50;;;19.52;56.62
16190;BME280;41754;51.498;7.540;2023-05-10T09:20:49;99803.41;;;18.50;57.48
16190;BME280;41754;51.498;7.540;2023-05-10T09:23:17;99803.91;;;18.85;56.95
16190;BME280;41754;51.498;7.540;2023-05-10T09:25:45;99806.28;;;19.17;54.68
16190;BME280;41754;51.498;7.540;2023-05-10T09:28:13;99800.31;;;19.55;54.42
16190;BME280;41754;51.498;7.540;2023-05-10T09:30:41;99802.25;;;19.11;55.18
16190;BME280;41754;51.498;7.540;2023-05-10T09:33:10;99805.44;;;18.53;57.84
16190;BME280;41754;51.498;7.540;2023-05-10T09:35:38;99820.50;;;17.14;64.88
16190;BME280;41754;51.498;7.540;2023-05-10T09:38:07;99819.25;;;16.38;63.72
16190;BME280;41754;51.498;7.540;2023-05-10T09:40:35;99811.59;;;16.86;62.86
16190;BME280;41754;51.498;7.540;2023-05-10T09:43:06;99812.00;;;17.27;61.05
16190;BME280;41754;51.498;7.540;2023-05-10T09:45:35;99816.69;;;17.42;61.38
16190;BME280;41754;51.498;7.540;2023-05-10T09:48:05;99819.63;;;17.49;60.54
16190;BME280;41754;51.498;7.540;2023-05-10T09:50:34;99821.97;;;17.93;60.13
16190;BME280;41754;51.498;7.540;2023-05-10T09:53:03;99818.09;;;17.74;61.01
16190;BME280;41754;51.498;7.540;2023-05-10T09:55:39;99816.53;;;18.00;60.10
16190;BME280;41754;51.498;7.540;2023-05-10T09:58:08;99819.09;;;17.63;60.29
16190;BME280;41754;51.498;7.540;2023-05-10T10:00:38;99821.63;;;17.10;62.11
16190;BME280;41754;51.498;7.540;2023-05-10T10:03:12;99813.19;;;17.91;60.48
16190;BME280;41754;51.498;7.540;2023-05-10T10:05:43;99811.59;;;17.90;58.20
16190;BME280;41754;51.498;7.540;2023-05-10T10:08:12;99812.25;;;18.29;56.75
16190;BME280;41754;51.498;7.540;2023-05-10T10:10:40;99809.28;;;18.45;57.05
16190;BME280;41754;51.498;7.540;2023-05-10T10:13:12;99809.94;;;18.91;56.28
16190;BME280;41754;51.498;7.540;2023-05-10T10:15:40;99811.22;;;19.31;53.61
16190;BME280;41754;51.498;7.540;2023-05-10T10:18:12;99811.41;;;19.48;53.23
16190;BME280;41754;51.498;7.540;2023-05-10T10:20:42;99814.63;;;18.57;52.90
16190;BME280;41754;51.498;7.540;2023-05-10T10:23:10;99818.03;;;17.48;55.35
16190;BME280;41754;51.498;7.540;2023-05-10T10:25:42;99813.69;;;18.72;54.26
16190;BME280;41754;51.498;7.540;2023-05-10T10:28:19;99805.69;;;19.34;52.28
16190;BME280;41754;51.498;7.540;2023-05-10T10:30:54;99816.69;;;18.60;53.50
16190;BME280;41754;51.498;7.540;2023-05-10T10:33:44;99812.25;;;18.85;54.90
16190;BME280;41754;51.498;7.540;2023-05-10T10:36:20;99814.06;;;18.44;56.22
16190;BME280;41754;51.498;7.540;2023-05-10T10:38:58;99826.34;;;18.17;55.93
16190;BME280;41754;51.498;7.540;2023-05-10T10:41:32;99816.44;;;18.19;55.87
16190;BME280;41754;51.498;7.540;2023-05-10T10:44:22;99822.34;;;18.14;54.79
16190;BME280;41754;51.498;7.540;2023-05-10T10:47:05;99816.75;;;18.14;54.84
16190;BME280;41754;51.498;7.540;2023-05-10T10:49:42;99819.53;;;17.88;54.25
16190;BME280;41754;51.498;7.540;2023-05-10T10:52:25;99827.22;;;16.94;55.37
16190;BME280;41754;51.498;7.540;2023-05-10T10:55:00;99818.66;;;17.41;56.03
16190;BME280;41754;51.498;7.540;2023-05-10T10:57:32;99808.31;;;18.90;54.09
16190;BME280;41754;51.498;7.540;2023-05-10T11:00:35;99813.97;;;19.27;52.04
16190;BME280;41754;51.498;7.540;2023-05-10T11:03:04;99830.97;;;17.60;53.43
16190;BME280;41754;51.498;7.540;2023-05-10T11:05:39;99825.75;;;17.39;54.66
16190;BME280;41754;51.498;7.540;2023-05-10T11:08:17;99818.56;;;20.34;49.26
16190;BME280;41754;51.498;7.540;2023-05-10T11:11:04;99822.09;;;20.83;47.30
16190;BME280;41754;51.498;7.540;2023-05-10T11:13:37;99842.63;;;18.64;53.28
16190;BME280;41754;51.498;7.540;2023-05-10T11:16:13;99839.22;;;18.25;55.95
16190;BME280;41754;51.498;7.540;2023-05-10T11:18:53;99845.72;;;18.32;55.75
16190;BME280;41754;51.498;7.540;2023-05-10T11:21:21;99836.09;;;20.31;50.87
16190;BME280;41754;51.498;7.540;2023-05-10T11:23:52;99834.84;;;21.96;44.38
16190;BME280;41754;51.498;7.540;2023-05-10T11:26:23;99850.44;;;21.93;43.41
16190;BME280;41754;51.498;7.540;2023-05-10T11:28:53;99849.25;;;22.40;44.66
16190;BME280;41754;51.498;7.540;2023-05-10T11:31:23;99850.22;;;20.01;47.74
16190;BME280;41754;51.498;7.540;2023-05-10T11:33:54;99847.81;;;19.22;50.16
16190;BME280;41754;51.498;7.540;2023-05-10T11:36:24;99850.31;;;17.75;53.42
16190;BME280;41754;51.498;7.540;2023-05-10T11:38:55;99851.59;;;18.80;49.96
16190;BME280;41754;51.498;7.540;2023-05-10T11:41:24;99860.19;;;18.42;50.50
16190;BME280;41754;51.498;7.540;2023-05-10T11:43:53;99856.13;;;17.90;52.82
16190;BME280;41754;51.498;7.540;2023-05-10T11:46:23;99865.78;;;17.53;54.73
16190;BME280;41754;51.498;7.540;2023-05-10T11:48:53;99863.78;;;17.73;54.87
16190;BME280;41754;51.498;7.540;2023-05-10T11:51:23;99867.94;;;18.06;53.17
16190;BME280;41754;51.498;7.540;2023-05-10T11:53:55;99869.09;;;18.05;54.26
16190;BME280;41754;51.498;7.540;2023-05-10T11:56:23;99875.44;;;18.02;51.73
16190;BME280;41754;51.498;7.540;2023-05-10T11:58:53;99874.13;;;18.42;50.48
16190;BME280;41754;51.498;7.540;2023-05-10T12:01:22;99887.84;;;17.43;53.04
16190;BME280;41754;51.498;7.540;2023-05-10T12:03:51;99879.19;;;17.09;54.51
16190;BME280;41754;51.498;7.540;2023-05-10T12:06:21;99881.38;;;17.00;54.98
16190;BME280;41754;51.498;7.540;2023-05-10T12:08:49;99888.91;;;16.33;57.41
16190;BME280;41754;51.498;7.540;2023-05-10T12:11:24;99891.41;;;17.43;55.50
16190;BME280;41754;51.498;7.540;2023-05-10T12:13:53;99893.25;;;17.36;55.70
16190;BME280;41754;51.498;7.540;2023-05-10T12:16:23;99893.09;;;17.09;56.09
16190;BME280;41754;51.498;7.540;2023-05-10T12:18:54;99898.22;;;16.41;57.83
16190;BME280;41754;51.498;7.540;2023-05-10T12:21:23;99897.75;;;16.54;58.20
16190;BME280;41754;51.498;7.540;2023-05-10T12:23:53;99898.31;;;16.44;58.25
16190;BME280;41754;51.498;7.540;2023-05-10T12:26:23;99901.69;;;16.85;56.98
16190;BME280;41754;51.498;7.540;2023-05-10T12:28:53;99894.84;;;18.44;51.68
16190;BME280;41754;51.498;7.540;2023-05-10T12:31:21;99895.78;;;18.06;52.28
16190;BME280;41754;51.498;7.540;2023-05-10T12:33:49;99899.31;;;18.03;53.36
16190;BME280;41754;51.498;7.540;2023-05-10T12:36:23;99902.91;;;18.26;53.05
16190;BME280;41754;51.498;7.540;2023-05-10T12:39:02;99897.59;;;18.40;52.90
16190;BME280;41754;51.498;7.540;2023-05-10T12:41:32;99893.56;;;18.38;51.44
16190;BME280;41754;51.498;7.540;2023-05-10T12:44:01;99886.13;;;19.99;48.94
16190;BME280;41754;51.498;7.540;2023-05-10T12:46:29;99891.91;;;20.21;47.01
16190;BME280;41754;51.498;7.540;2023-05-10T12:48:57;99909.94;;;18.20;50.78
16190;BME280;41754;51.498;7.540;2023-05-10T12:51:34;99911.91;;;17.55;55.18
16190;BME280;41754;51.498;7.540;2023-05-10T12:54:02;99914.00;;;17.80;55.02
16190;BME280;41754;51.498;7.540;2023-05-10T12:56:30;99911.53;;;17.75;54.32
16190;BME280;41754;51.498;7.540;2023-05-10T12:59:00;99916.09;;;17.64;54.66
16190;BME280;41754;51.498;7.540;2023-05-10T13:01:28;99907.00;;;17.09;55.88
16190;BME280;41754;51.498;7.540;2023-05-10T13:03:56;99914.97;;;16.76;57.38
16190;BME280;41754;51.498;7.540;2023-05-10T13:06:24;99915.50;;;18.66;53.26
16190;BME280;41754;51.498;7.540;2023-05-10T13:08:52;99918.13;;;17.09;56.20
16190;BME280;41754;51.498;7.540;2023-05-10T13:11:20;99917.84;;;17.72;55.71
16190;BME280;41754;51.498;7.540;2023-05-10T13:13:48;99916.19;;;19.79;49.17
16190;BME280;41754;51.498;7.540;2023-05-10T13:16:17;99921.31;;;20.07;48.49